Time;durP1;ratioP1;P1;durP2;ratioP2;P2;SDS_P1;SDS_P2;PMS_P1;PMS_P2;Temp;Humidity;BMP_temperature;BMP_pressure;BME280_temperature;BME280_humidity;BME280_pressure;Samples;Min_cycle;Max_cycle;Signal;HPM_P1;HPM_P2
2023/03/30 00:02:08;;;;;;;10.50;4.47;;;;;;;;;;5006895;28;20021;-59
2023/03/30 00:04:36;;;;;;;10.82;3.63;;;;;;;;;;5014720;28;20036;-56
2023/03/30 00:07:01;;;;;;;8.38;3.65;;;;;;;;;;5014832;28;21703;-56
2023/03/30 00:09:29;;;;;;;9.52;4.50;;;;;;;;;;5008677;28;20029;-57
2023/03/30 00:11:55;;;;;;;13.10;3.97;;;;;;;;;;5012249;28;20029;-57
2023/03/30 00:14:22;;;;;;;9.57;3.78;;;;;;;;;;5011028;28;20025;-56
2023/03/30 00:16:47;;;;;;;10.13;4.15;;;;;;;;;;5015162;28;20029;-59
2023/03/30 00:19:12;;;;;;;13.77;4.53;;;;;;;;;;5024273;28;20033;-57
2023/03/30 00:21:38;;;;;;;9.63;4.28;;;;;;;;;;5022926;28;20034;-57
2023/03/30 00:24:03;;;;;;;15.10;3.92;;;;;;;;;;5012479;28;20036;-57
2023/03/30 00:26:28;;;;;;;10.15;3.78;;;;;;;;;;5008609;28;20395;-57
2023/03/30 00:28:54;;;;;;;10.20;4.20;;;;;;;;;;5015382;28;20060;-56
2023/03/30 00:31:19;;;;;;;9.45;3.65;;;;;;;;;;5007676;28;20041;-56
2023/03/30 00:33:45;;;;;;;13.50;4.20;;;;;;;;;;5007700;28;20532;-57
2023/03/30 00:36:11;;;;;;;8.95;3.92;;;;;;;;;;5012904;28;20049;-51
2023/03/30 00:38:36;;;;;;;9.73;3.60;;;;;;;;;;5009308;28;20433;-56
2023/03/30 00:41:01;;;;;;;13.93;4.22;;;;;;;;;;5028355;28;20144;-55
2023/03/30 00:43:27;;;;;;;8.32;4.03;;;;;;;;;;5008359;28;20056;-57
2023/03/30 00:45:54;;;;;;;10.05;4.50;;;;;;;;;;5006340;28;20021;-57
2023/03/30 00:48:20;;;;;;;13.35;3.78;;;;;;;;;;5013368;28;20042;-57
2023/03/30 00:50:52;;;;;;;11.63;3.75;;;;;;;;;;5006965;28;20030;-56
2023/03/30 00:53:23;;;;;;;11.93;4.15;;;;;;;;;;5012447;28;20038;-61
2023/03/30 00:55:49;;;;;;;9.40;3.72;;;;;;;;;;5014055;28;20033;-57
2023/03/30 00:58:16;;;;;;;12.63;4.50;;;;;;;;;;5008798;28;20030;-57
2023/03/30 01:00:42;;;;;;;15.55;5.03;;;;;;;;;;5013637;28;20059;-60
2023/03/30 01:03:11;;;;;;;17.60;4.90;;;;;;;;;;5014167;28;20049;-58
2023/03/30 01:05:38;;;;;;;15.77;6.35;;;;;;;;;;5022506;28;20470;-56
2023/03/30 01:08:06;;;;;;;13.63;3.90;;;;;;;;;;5013479;28;20080;-56
2023/03/30 01:10:32;;;;;;;13.57;4.22;;;;;;;;;;5006453;28;20034;-56
2023/03/30 01:12:57;;;;;;;17.48;4.20;;;;;;;;;;5013228;28;21929;-62
2023/03/30 01:15:24;;;;;;;13.65;4.10;;;;;;;;;;5005762;28;20417;-54
2023/03/30 01:18:01;;;;;;;13.38;3.53;;;;;;;;;;5010662;28;21031;-56
2023/03/30 01:20:39;;;;;;;13.45;5.05;;;;;;;;;;5017614;28;22038;-56
2023/03/30 01:23:04;;;;;;;14.43;3.90;;;;;;;;;;5022754;28;20033;-55
2023/03/30 01:25:30;;;;;;;11.00;3.60;;;;;;;;;;5014104;28;20040;-58
2023/03/30 01:27:58;;;;;;;13.60;4.35;;;;;;;;;;5005760;28;20037;-56
2023/03/30 01:30:40;;;;;;;15.68;4.32;;;;;;;;;;5006319;28;20395;-59
2023/03/30 01:33:06;;;;;;;16.88;3.90;;;;;;;;;;5019131;28;20119;-58
2023/03/30 01:35:33;;;;;;;;;;;;;;;;;;5021788;28;20045;-57
2023/03/30 01:38:18;;;;;;;14.13;3.67;;;;;;;;;;5019985;28;19913;-57
2023/03/30 01:40:51;;;;;;;14.00;3.53;;;;;;;;;;5013344;28;20079;-57
2023/03/30 01:43:21;;;;;;;9.23;3.38;;;;;;;;;;5021602;28;20410;-55
2023/03/30 01:45:46;;;;;;;16.75;3.65;;;;;;;;;;5021074;28;20037;-61
2023/03/30 01:48:38;;;;;;;17.83;4.05;;;;;;;;;;5012348;28;20038;-57
2023/03/30 01:51:09;;;;;;;11.68;3.22;;;;;;;;;;5013232;28;20053;-55
2023/03/30 01:53:40;;;;;;;18.83;3.70;;;;;;;;;;5024925;28;20115;-54
2023/03/30 01:56:11;;;;;;;14.52;3.67;;;;;;;;;;5008733;28;20159;-53
2023/03/30 01:58:48;;;;;;;15.65;5.60;;;;;;;;;;5022957;28;20036;-57
2023/03/30 02:01:16;;;;;;;16.17;5.25;;;;;;;;;;5025300;28;20087;-56
2023/03/30 02:03:45;;;;;;;12.02;5.15;;;;;;;;;;5004467;28;20041;-55
2023/03/30 02:06:18;;;;;;;12.10;4.00;;;;;;;;;;5007913;28;20025;-56
2023/03/30 02:08:48;;;;;;;13.95;4.60;;;;;;;;;;5017616;28;20036;-50
2023/03/30 02:11:13;;;;;;;15.45;3.95;;;;;;;;;;5007714;28;20034;-54
2023/03/30 02:13:40;;;;;;;16.45;3.47;;;;;;;;;;5013502;28;20187;-53
2023/03/30 02:16:08;;;;;;;12.55;4.32;;;;;;;;;;5006625;28;20052;-54
2023/03/30 02:18:37;;;;;;;11.77;4.03;;;;;;;;;;5006209;28;20115;-59
2023/03/30 02:21:02;;;;;;;11.07;3.70;;;;;;;;;;5018469;28;20030;-59
2023/03/30 02:23:29;;;;;;;12.23;3.45;;;;;;;;;;5007505;28;20038;-58
2023/03/30 02:25:55;;;;;;;15.15;3.70;;;;;;;;;;5012023;28;20025;-56
2023/03/30 02:28:21;;;;;;;15.60;3.93;;;;;;;;;;5006501;28;20427;-58
2023/03/30 02:30:46;;;;;;;13.07;3.85;;;;;;;;;;5006176;28;20907;-57
2023/03/30 02:33:24;;;;;;;14.48;3.08;;;;;;;;;;5011688;28;20041;-54
2023/03/30 02:36:02;;;;;;;10.68;3.10;;;;;;;;;;5018423;28;20026;-55
2023/03/30 02:38:51;;;;;;;10.70;3.45;;;;;;;;;;5022363;28;20471;-58
2023/03/30 02:41:30;;;;;;;10.32;3.22;;;;;;;;;;5016165;28;20030;-56
2023/03/30 02:43:55;;;;;;;12.63;3.35;;;;;;;;;;5016694;28;20037;-56
2023/03/30 02:46:36;;;;;;;10.55;2.83;;;;;;;;;;5006535;28;20030;-55
2023/03/30 02:49:02;;;;;;;11.15;3.08;;;;;;;;;;5010499;28;20026;-58
2023/03/30 02:51:32;;;;;;;15.82;3.80;;;;;;;;;;5019619;28;20756;-58
2023/03/30 02:54:32;;;;;;;18.92;3.35;;;;;;;;;;5007604;28;20050;-56
2023/03/30 02:57:29;;;;;;;17.20;3.47;;;;;;;;;;5013121;28;20042;-58
2023/03/30 03:00:16;;;;;;;19.40;4.05;;;;;;;;;;5021151;28;20030;-59
2023/03/30 03:02:45;;;;;;;10.30;3.78;;;;;;;;;;5019791;28;20034;-58
2023/03/30 03:05:25;;;;;;;13.27;2.83;;;;;;;;;;5030393;28;20065;-59
2023/03/30 03:08:00;;;;;;;13.25;4.10;;;;;;;;;;5019728;28;20029;-58
2023/03/30 03:10:26;;;;;;;13.18;3.50;;;;;;;;;;5016611;28;20083;-53
2023/03/30 03:12:52;;;;;;;17.90;3.65;;;;;;;;;;5014250;28;20092;-55
2023/03/30 03:15:19;;;;;;;14.88;3.20;;;;;;;;;;5010440;28;20129;-56
2023/03/30 03:18:17;;;;;;;15.27;3.10;;;;;;;;;;5015360;28;20119;-59
2023/03/30 03:20:43;;;;;;;19.45;3.83;;;;;;;;;;4997970;28;20428;-61
2023/03/30 03:23:08;;;;;;;14.15;3.08;;;;;;;;;;5018955;28;20512;-55
2023/03/30 03:25:47;;;;;;;19.77;3.50;;;;;;;;;;5032292;28;20375;-58
2023/03/30 03:28:15;;;;;;;;;;;;;;;;;;5026655;28;20025;-58
2023/03/30 03:30:44;;;;;;;18.08;3.85;;;;;;;;;;5014771;28;20567;-57
2023/03/30 03:33:15;;;;;;;19.80;4.30;;;;;;;;;;5004321;28;20029;-57
2023/03/30 03:35:46;;;;;;;18.17;4.05;;;;;;;;;;5011090;28;20033;-56
2023/03/30 03:38:12;;;;;;;23.15;4.28;;;;;;;;;;5028114;28;20029;-57
2023/03/30 03:40:39;;;;;;;13.73;3.85;;;;;;;;;;5010503;28;20026;-56
2023/03/30 03:43:04;;;;;;;20.63;3.63;;;;;;;;;;5011905;28;20636;-55
2023/03/30 03:45:30;;;;;;;13.85;3.80;;;;;;;;;;5022959;28;20025;-58
2023/03/30 03:47:57;;;;;;;18.00;3.60;;;;;;;;;;5015679;28;20056;-57
2023/03/30 03:50:34;;;;;;;12.77;3.58;;;;;;;;;;5018163;28;20060;-57
2023/03/30 03:53:00;;;;;;;14.45;3.80;;;;;;;;;;5026730;28;20060;-58
2023/03/30 03:55:28;;;;;;;16.15;3.85;;;;;;;;;;5013633;28;20187;-60
2023/03/30 03:57:53;;;;;;;19.02;3.88;;;;;;;;;;5016186;28;20470;-56
2023/03/30 04:00:19;;;;;;;17.83;3.70;;;;;;;;;;5015475;28;21168;-58
2023/03/30 04:02:50;;;;;;;15.90;3.63;;;;;;;;;;5019283;28;20042;-59
2023/03/30 04:05:15;;;;;;;11.38;3.70;;;;;;;;;;5016370;28;20505;-56
2023/03/30 04:07:40;;;;;;;14.27;3.60;;;;;;;;;;5008903;28;20065;-57
2023/03/30 04:10:06;;;;;;;12.82;3.60;;;;;;;;;;5016483;28;20041;-58
2023/03/30 04:12:41;;;;;;;17.63;3.92;;;;;;;;;;5032110;28;20068;-55
2023/03/30 04:15:30;;;;;;;23.17;3.97;;;;;;;;;;5011761;28;20037;-57
2023/03/30 04:18:07;;;;;;;15.82;3.78;;;;;;;;;;5019323;28;20443;-55
2023/03/30 04:21:03;;;;;;;20.70;4.20;;;;;;;;;;4978566;28;20045;-57
2023/03/30 04:23:47;;;;;;;11.77;3.72;;;;;;;;;;5016375;28;20114;-59
2023/03/30 04:26:47;;;;;;;16.52;4.78;;;;;;;;;;4995718;28;20493;-58
2023/03/30 04:29:25;;;;;;;24.50;4.60;;;;;;;;;;5007226;28;20454;-57
2023/03/30 04:32:11;;;;;;;15.75;4.43;;;;;;;;;;5008968;28;20073;-58
2023/03/30 04:35:13;;;;;;;22.58;3.88;;;;;;;;;;5009037;28;20042;-59
2023/03/30 04:38:01;;;;;;;13.48;3.63;;;;;;;;;;5019862;28;20028;-59
2023/03/30 04:41:02;;;;;;;13.00;3.80;;;;;;;;;;5022024;28;20026;-56
2023/03/30 04:43:43;;;;;;;15.73;4.25;;;;;;;;;;5008362;28;20041;-54
2023/03/30 04:46:35;;;;;;;12.50;4.13;;;;;;;;;;5013339;28;20029;-54
2023/03/30 04:49:03;;;;;;;13.50;3.47;;;;;;;;;;5004490;28;20030;-57
2023/03/30 04:51:55;;;;;;;19.60;4.57;;;;;;;;;;4990196;28;20538;-59
2023/03/30 04:54:34;;;;;;;17.02;4.93;;;;;;;;;;5014191;28;20041;-57
2023/03/30 04:57:25;;;;;;;10.90;3.92;;;;;;;;;;5009655;28;20038;-54
2023/03/30 05:00:23;;;;;;;22.30;4.90;;;;;;;;;;5010200;28;20048;-58
2023/03/30 05:03:14;;;;;;;21.27;5.07;;;;;;;;;;5001774;28;20045;-57
2023/03/30 05:06:06;;;;;;;16.92;4.63;;;;;;;;;;5009307;28;20124;-59
2023/03/30 05:08:45;;;;;;;18.23;5.05;;;;;;;;;;5013793;28;20028;-57
2023/03/30 05:11:40;;;;;;;17.17;4.65;;;;;;;;;;5015946;28;20149;-55
2023/03/30 05:14:28;;;;;;;17.15;5.03;;;;;;;;;;5012118;28;20155;-57
2023/03/30 05:17:00;;;;;;;19.90;5.22;;;;;;;;;;5009179;28;20033;-60
2023/03/30 05:19:45;;;;;;;16.77;4.65;;;;;;;;;;5007623;28;20196;-58
2023/03/30 05:22:28;;;;;;;13.70;4.82;;;;;;;;;;5013784;28;20032;-59
2023/03/30 05:25:08;;;;;;;19.55;4.50;;;;;;;;;;5007500;28;20045;-58
2023/03/30 05:27:48;;;;;;;14.32;4.40;;;;;;;;;;5010810;28;20030;-58
2023/03/30 05:30:37;;;;;;;13.02;4.78;;;;;;;;;;5025212;28;20113;-53
2023/03/30 05:33:21;;;;;;;26.40;5.50;;;;;;;;;;5007752;28;20077;-55
2023/03/30 05:36:05;;;;;;;15.73;4.65;;;;;;;;;;5009144;28;20045;-55
2023/03/30 05:38:51;;;;;;;14.27;4.07;;;;;;;;;;5011356;28;20120;-56
2023/03/30 05:41:52;;;;;;;12.57;4.65;;;;;;;;;;4987576;28;20104;-60
2023/03/30 05:44:36;;;;;;;16.50;5.03;;;;;;;;;;5012845;28;20053;-58
2023/03/30 05:47:16;;;;;;;15.88;4.53;;;;;;;;;;5010908;28;20045;-58
2023/03/30 05:50:14;;;;;;;20.50;4.80;;;;;;;;;;5016216;28;20057;-58
2023/03/30 05:52:50;;;;;;;13.57;4.85;;;;;;;;;;5027809;28;20025;-53
2023/03/30 05:55:22;;;;;;;12.73;3.75;;;;;;;;;;5026708;28;20033;-56
2023/03/30 05:58:15;;;;;;;14.00;5.03;;;;;;;;;;4999917;28;20037;-57
2023/03/30 06:00:59;;;;;;;16.45;4.93;;;;;;;;;;5022698;28;20064;-55
2023/03/30 06:03:34;;;;;;;19.55;4.55;;;;;;;;;;5012595;28;20057;-67
2023/03/30 06:05:59;;;;;;;16.13;5.28;;;;;;;;;;5012978;28;20041;-59
2023/03/30 06:08:25;;;;;;;18.85;4.32;;;;;;;;;;5016001;28;20463;-56
2023/03/30 06:10:55;;;;;;;20.33;4.13;;;;;;;;;;5012918;28;20037;-57
2023/03/30 06:13:22;;;;;;;16.33;3.92;;;;;;;;;;5029393;28;20133;-59
2023/03/30 06:15:50;;;;;;;24.98;5.75;;;;;;;;;;5012050;28;20083;-58
2023/03/30 06:18:19;;;;;;;20.35;4.32;;;;;;;;;;5025110;28;20033;-57
2023/03/30 06:20:53;;;;;;;22.15;6.72;;;;;;;;;;5010556;28;20035;-61
2023/03/30 06:23:19;;;;;;;18.33;4.53;;;;;;;;;;5014664;28;20037;-56
2023/03/30 06:25:45;;;;;;;17.17;4.57;;;;;;;;;;5018039;28;20030;-57
2023/03/30 06:28:11;;;;;;;19.63;4.95;;;;;;;;;;5014334;28;20064;-58
2023/03/30 06:30:37;;;;;;;19.40;3.88;;;;;;;;;;5010674;28;20125;-58
2023/03/30 06:33:05;;;;;;;17.67;4.00;;;;;;;;;;5010033;28;20140;-54
2023/03/30 06:35:38;;;;;;;20.67;3.78;;;;;;;;;;5014768;28;20180;-57
2023/03/30 06:38:03;;;;;;;14.45;4.32;;;;;;;;;;5015370;28;20116;-58
2023/03/30 06:40:29;;;;;;;16.20;4.25;;;;;;;;;;5025639;28;20042;-59
2023/03/30 06:42:56;;;;;;;21.75;4.70;;;;;;;;;;5012989;28;20045;-61
2023/03/30 06:45:34;;;;;;;17.17;4.50;;;;;;;;;;5013527;28;20509;-58
2023/03/30 06:48:00;;;;;;;15.07;4.57;;;;;;;;;;5013489;28;20504;-57
2023/03/30 06:50:25;;;;;;;16.10;4.40;;;;;;;;;;5012785;28;20116;-58
2023/03/30 06:53:03;;;;;;;21.25;5.75;;;;;;;;;;5019649;28;20140;-57
2023/03/30 06:55:36;;;;;;;14.77;5.03;;;;;;;;;;5018312;28;20033;-57
2023/03/30 06:58:01;;;;;;;18.73;6.50;;;;;;;;;;5017894;28;20152;-59
2023/03/30 07:00:27;;;;;;;15.27;5.65;;;;;;;;;;5013557;28;20140;-52
2023/03/30 07:03:10;;;;;;;13.38;5.10;;;;;;;;;;5012966;28;20413;-55
2023/03/30 07:05:45;;;;;;;19.90;6.13;;;;;;;;;;5011570;28;20109;-59
2023/03/30 07:08:17;;;;;;;18.40;6.35;;;;;;;;;;5014229;28;20097;-54
2023/03/30 07:10:50;;;;;;;19.67;5.90;;;;;;;;;;5018364;28;20026;-57
2023/03/30 07:13:16;;;;;;;21.23;5.75;;;;;;;;;;5027519;28;20455;-55
2023/03/30 07:15:44;;;;;;;19.50;5.68;;;;;;;;;;4995552;28;20045;-58
2023/03/30 07:18:09;;;;;;;15.90;4.90;;;;;;;;;;5011953;28;20042;-58
2023/03/30 07:20:35;;;;;;;21.13;6.22;;;;;;;;;;5008071;28;20079;-54
2023/03/30 07:23:20;;;;;;;18.02;5.70;;;;;;;;;;5015845;28;20056;-58
2023/03/30 07:25:47;;;;;;;23.13;5.78;;;;;;;;;;5027926;28;20038;-56
2023/03/30 07:28:21;;;;;;;16.63;5.97;;;;;;;;;;5013214;28;20044;-56
2023/03/30 07:30:46;;;;;;;18.52;4.47;;;;;;;;;;5014702;28;20049;-56
2023/03/30 07:33:13;;;;;;;20.10;4.95;;;;;;;;;;5029520;28;20029;-58
2023/03/30 07:35:44;;;;;;;17.80;4.72;;;;;;;;;;5014385;28;20036;-59
2023/03/30 07:38:10;;;;;;;23.25;5.13;;;;;;;;;;5025810;28;20038;-59
2023/03/30 07:40:40;;;;;;;17.88;5.30;;;;;;;;;;5017851;28;20398;-57
2023/03/30 07:43:06;;;;;;;20.55;5.15;;;;;;;;;;5026053;28;20046;-60
2023/03/30 07:45:32;;;;;;;22.05;5.00;;;;;;;;;;5014702;28;20059;-60
2023/03/30 07:47:57;;;;;;;30.73;6.38;;;;;;;;;;5019687;28;20040;-59
2023/03/30 07:50:24;;;;;;;21.10;4.90;;;;;;;;;;5027555;28;20030;-60
2023/03/30 07:52:51;;;;;;;19.05;5.38;;;;;;;;;;5016781;28;20041;-60
2023/03/30 07:55:17;;;;;;;17.58;4.95;;;;;;;;;;5031405;28;20029;-59
2023/03/30 07:57:54;;;;;;;20.95;6.22;;;;;;;;;;5022083;28;20033;-62
2023/03/30 08:00:21;;;;;;;22.13;5.80;;;;;;;;;;5012169;28;20368;-58
2023/03/30 08:03:20;;;;;;;27.27;5.80;;;;;;;;;;4998113;28;20041;-61
2023/03/30 08:05:46;;;;;;;;;;;;;;;;;;5016656;28;20049;-58
2023/03/30 08:08:15;;;;;;;19.98;5.03;;;;;;;;;;5020427;28;19917;-61
2023/03/30 08:10:40;;;;;;;12.07;4.60;;;;;;;;;;5020751;28;20033;-62
2023/03/30 08:13:06;;;;;;;44.00;16.90;;;;;;;;;;5030941;28;20034;-59
2023/03/30 08:15:31;;;;;;;29.20;14.73;;;;;;;;;;4983609;28;20034;-59
2023/03/30 08:17:57;;;;;;;22.20;7.57;;;;;;;;;;5015988;28;20033;-61
2023/03/30 08:20:23;;;;;;;18.13;6.00;;;;;;;;;;5012662;28;20041;-58
2023/03/30 08:22:48;;;;;;;19.85;5.80;;;;;;;;;;5016344;28;20122;-58
2023/03/30 08:25:14;;;;;;;22.25;6.10;;;;;;;;;;5028607;28;20057;-59
2023/03/30 08:27:39;;;;;;;15.85;5.65;;;;;;;;;;5014032;28;20037;-58
2023/03/30 08:30:05;;;;;;;16.75;5.22;;;;;;;;;;5015418;28;20057;-59
2023/03/30 08:32:30;;;;;;;19.27;5.38;;;;;;;;;;5016914;28;20617;-58
2023/03/30 08:34:55;;;;;;;20.63;5.68;;;;;;;;;;5013379;28;20034;-61
2023/03/30 08:37:21;;;;;;;21.13;5.85;;;;;;;;;;5015527;28;20025;-59
2023/03/30 08:39:46;;;;;;;17.25;6.13;;;;;;;;;;5020739;28;20073;-60
2023/03/30 08:42:31;;;;;;;19.02;6.03;;;;;;;;;;5015956;28;20494;-58
2023/03/30 08:45:02;;;;;;;21.65;5.80;;;;;;;;;;5016155;28;20053;-59
2023/03/30 08:47:32;;;;;;;18.35;5.40;;;;;;;;;;5013650;28;20092;-58
2023/03/30 08:50:03;;;;;;;19.55;5.60;;;;;;;;;;5014328;28;20080;-60
2023/03/30 08:52:29;;;;;;;18.20;4.90;;;;;;;;;;5013885;28;20033;-60
2023/03/30 08:54:54;;;;;;;20.25;5.88;;;;;;;;;;5018394;28;20099;-58
2023/03/30 08:57:38;;;;;;;14.25;5.60;;;;;;;;;;5013759;28;20560;-60
2023/03/30 09:00:26;;;;;;;25.00;7.00;;;;;;;;;;5013225;28;20033;-59
2023/03/30 09:02:54;;;;;;;23.35;7.60;;;;;;;;;;5016115;28;20696;-59
2023/03/30 09:05:29;;;;;;;30.33;12.52;;;;;;;;;;5016585;28;20025;-59
2023/03/30 09:08:28;;;;;;;23.13;7.07;;;;;;;;;;5019486;28;20498;-59
2023/03/30 09:10:57;;;;;;;21.65;7.30;;;;;;;;;;4989491;28;20077;-60
2023/03/30 09:13:25;;;;;;;17.83;5.63;;;;;;;;;;5024644;28;20083;-59
2023/03/30 09:15:50;;;;;;;;;;;;;;;;;;5015279;28;20116;-59
2023/03/30 09:18:18;;;;;;;15.33;6.27;;;;;;;;;;5013507;28;19913;-59
2023/03/30 09:20:45;;;;;;;20.75;5.95;;;;;;;;;;5012510;28;20365;-59
2023/03/30 09:23:12;;;;;;;16.50;5.90;;;;;;;;;;5012695;28;20149;-60
2023/03/30 09:25:52;;;;;;;18.63;5.70;;;;;;;;;;5027362;28;20029;-58
2023/03/30 09:28:31;;;;;;;14.88;5.40;;;;;;;;;;5015542;28;20041;-56
2023/03/30 09:31:03;;;;;;;17.73;5.57;;;;;;;;;;5026562;28;20029;-59
2023/03/30 09:33:32;;;;;;;15.38;6.00;;;;;;;;;;5015775;28;20037;-61
2023/03/30 09:36:00;;;;;;;45.75;14.65;;;;;;;;;;5014423;28;20025;-59
2023/03/30 09:38:26;;;;;;;40.75;13.52;;;;;;;;;;5029582;28;20418;-59
2023/03/30 09:40:55;;;;;;;28.05;9.95;;;;;;;;;;5015834;28;20108;-58
2023/03/30 09:43:31;;;;;;;18.17;6.82;;;;;;;;;;5015404;28;20549;-59
2023/03/30 09:45:56;;;;;;;13.70;5.88;;;;;;;;;;5013020;28;20033;-59
2023/03/30 09:48:22;;;;;;;15.13;6.00;;;;;;;;;;5013386;28;20387;-59
2023/03/30 09:50:47;;;;;;;25.08;9.30;;;;;;;;;;5012442;28;20037;-59
2023/03/30 09:53:26;;;;;;;23.00;6.75;;;;;;;;;;5013872;28;20034;-59
2023/03/30 09:55:58;;;;;;;24.63;10.90;;;;;;;;;;5011674;28;20109;-58
2023/03/30 09:58:26;;;;;;;26.60;10.57;;;;;;;;;;5014300;28;20038;-59
2023/03/30 10:01:04;;;;;;;15.95;8.63;;;;;;;;;;5013275;28;20048;-62
2023/03/30 10:03:29;;;;;;;17.02;6.72;;;;;;;;;;5013367;28;20458;-59
2023/03/30 10:06:11;;;;;;;27.25;10.75;;;;;;;;;;5012974;28;20041;-59
2023/03/30 10:08:43;;;;;;;23.65;10.90;;;;;;;;;;5011800;28;20514;-60
2023/03/30 10:11:08;;;;;;;26.73;12.23;;;;;;;;;;5026086;28;20048;-59
2023/03/30 10:13:40;;;;;;;20.67;8.52;;;;;;;;;;5015074;28;20029;-59
2023/03/30 10:16:07;;;;;;;9.10;3.47;;;;;;;;;;5013329;28;20419;-60
2023/03/30 10:18:40;;;;;;;13.00;4.90;;;;;;;;;;5028015;28;20039;-60
2023/03/30 10:21:14;;;;;;;15.90;6.25;;;;;;;;;;5010865;28;20041;-59
2023/03/30 10:23:43;;;;;;;12.50;6.18;;;;;;;;;;5021301;28;20044;-59
2023/03/30 10:26:17;;;;;;;18.77;11.20;;;;;;;;;;5013023;28;20041;-58
2023/03/30 10:28:56;;;;;;;13.82;6.63;;;;;;;;;;5017300;28;20041;-60
2023/03/30 10:31:22;;;;;;;10.25;5.40;;;;;;;;;;5027361;28;20383;-58
2023/03/30 10:33:48;;;;;;;7.80;3.85;;;;;;;;;;5012026;28;20148;-57
2023/03/30 10:36:14;;;;;;;10.73;3.65;;;;;;;;;;5019112;28;20112;-59
2023/03/30 10:38:40;;;;;;;9.10;3.33;;;;;;;;;;5016520;28;20132;-59
2023/03/30 10:41:07;;;;;;;11.57;3.55;;;;;;;;;;5004309;28;20105;-59
2023/03/30 10:43:33;;;;;;;9.90;3.50;;;;;;;;;;5013918;28;20040;-57
2023/03/30 10:46:06;;;;;;;10.48;3.75;;;;;;;;;;5027779;28;20037;-60
2023/03/30 10:48:34;;;;;;;9.38;3.47;;;;;;;;;;5012680;28;20040;-58
2023/03/30 10:51:06;;;;;;;9.25;3.40;;;;;;;;;;5031216;28;20421;-61
2023/03/30 10:53:31;;;;;;;9.25;4.07;;;;;;;;;;5029222;28;20058;-58
2023/03/30 10:56:04;;;;;;;9.63;3.72;;;;;;;;;;5011971;28;20033;-59
2023/03/30 10:58:29;;;;;;;8.50;3.30;;;;;;;;;;5012161;28;20045;-59
2023/03/30 11:01:02;;;;;;;10.02;3.70;;;;;;;;;;5013895;28;20038;-61
2023/03/30 11:03:30;;;;;;;11.38;4.18;;;;;;;;;;5019177;28;20343;-61
2023/03/30 11:05:57;;;;;;;7.57;3.20;;;;;;;;;;5016354;28;20037;-58
2023/03/30 11:08:31;;;;;;;13.07;3.83;;;;;;;;;;5015107;28;20025;-59
2023/03/30 11:10:57;;;;;;;5.93;3.35;;;;;;;;;;5013977;28;20054;-57
2023/03/30 11:13:26;;;;;;;10.98;3.85;;;;;;;;;;5012316;28;20812;-60
2023/03/30 11:15:53;;;;;;;10.13;4.40;;;;;;;;;;5012613;28;20037;-59
2023/03/30 11:18:20;;;;;;;9.10;3.57;;;;;;;;;;5009772;28;20063;-58
2023/03/30 11:20:50;;;;;;;10.95;4.32;;;;;;;;;;5010305;28;20259;-60
2023/03/30 11:23:26;;;;;;;8.40;3.85;;;;;;;;;;5009919;28;20129;-58
2023/03/30 11:26:00;;;;;;;11.15;3.88;;;;;;;;;;5012070;28;20033;-61
2023/03/30 11:28:25;;;;;;;12.68;3.67;;;;;;;;;;5015670;28;20032;-62
2023/03/30 11:30:53;;;;;;;6.00;3.35;;;;;;;;;;5015712;28;20457;-58
2023/03/30 11:33:21;;;;;;;7.68;3.40;;;;;;;;;;5029864;28;20033;-59
2023/03/30 11:35:49;;;;;;;8.55;3.25;;;;;;;;;;5012691;28;20167;-58
2023/03/30 11:38:20;;;;;;;9.68;3.20;;;;;;;;;;5015004;28;20041;-63
2023/03/30 11:40:47;;;;;;;7.22;3.13;;;;;;;;;;5014513;28;20034;-58
2023/03/30 11:43:14;;;;;;;6.47;2.85;;;;;;;;;;5014406;28;20486;-59
2023/03/30 11:45:52;;;;;;;7.88;2.90;;;;;;;;;;5015697;28;20030;-60
2023/03/30 11:48:29;;;;;;;6.25;3.00;;;;;;;;;;5013733;28;20558;-61
2023/03/30 11:51:11;;;;;;;8.18;2.95;;;;;;;;;;5027431;28;20058;-59
2023/03/30 11:54:02;;;;;;;9.10;2.72;;;;;;;;;;5014081;28;20072;-60
2023/03/30 11:56:34;;;;;;;8.07;3.53;;;;;;;;;;5014101;28;20153;-59
2023/03/30 11:59:04;;;;;;;8.32;3.25;;;;;;;;;;5012209;28;20034;-58
2023/03/30 12:01:41;;;;;;;26.00;14.13;;;;;;;;;;5031120;28;20105;-60
2023/03/30 12:04:09;;;;;;;7.65;3.40;;;;;;;;;;5014309;28;20100;-60
2023/03/30 12:06:57;;;;;;;8.48;3.28;;;;;;;;;;5018441;28;20025;-58
2023/03/30 12:09:24;;;;;;;5.88;3.17;;;;;;;;;;5007058;28;20049;-60
2023/03/30 12:11:50;;;;;;;5.18;3.13;;;;;;;;;;5015666;28;20196;-61
2023/03/30 12:14:21;;;;;;;7.07;3.00;;;;;;;;;;5014837;28;20494;-61
2023/03/30 12:16:49;;;;;;;10.23;3.30;;;;;;;;;;5014254;28;20550;-60
2023/03/30 12:19:30;;;;;;;8.23;3.47;;;;;;;;;;5013217;28;20495;-58
2023/03/30 12:21:55;;;;;;;7.82;3.20;;;;;;;;;;5016763;28;20045;-59
2023/03/30 12:24:21;;;;;;;7.93;3.25;;;;;;;;;;5014571;28;20034;-59
2023/03/30 12:26:47;;;;;;;8.60;3.50;;;;;;;;;;5011735;28;20387;-61
2023/03/30 12:29:15;;;;;;;6.40;3.05;;;;;;;;;;5014570;28;20916;-59
2023/03/30 12:32:07;;;;;;;6.47;2.90;;;;;;;;;;5014302;28;20025;-59
2023/03/30 12:34:35;;;;;;;8.15;3.65;;;;;;;;;;5011122;28;20045;-60
2023/03/30 12:37:11;;;;;;;6.68;2.92;;;;;;;;;;5032361;28;20141;-60
2023/03/30 12:39:47;;;;;;;5.68;2.80;;;;;;;;;;5016644;28;20026;-59
2023/03/30 12:42:33;;;;;;;10.30;3.30;;;;;;;;;;5014952;28;20026;-60
2023/03/30 12:44:58;;;;;;;10.52;3.40;;;;;;;;;;5016704;28;20381;-61
2023/03/30 12:47:29;;;;;;;10.13;3.08;;;;;;;;;;5011803;28;20032;-61
2023/03/30 12:49:55;;;;;;;5.53;2.70;;;;;;;;;;5016034;28;20029;-59
2023/03/30 12:52:20;;;;;;;7.50;2.50;;;;;;;;;;5015055;28;20398;-58
2023/03/30 12:55:03;;;;;;;7.90;3.00;;;;;;;;;;5014120;28;20167;-60
2023/03/30 12:57:41;;;;;;;7.55;2.60;;;;;;;;;;5015414;28;20088;-60
2023/03/30 13:00:06;;;;;;;12.35;3.00;;;;;;;;;;5014587;28;20084;-59
2023/03/30 13:02:35;;;;;;;8.77;2.67;;;;;;;;;;5015020;28;20336;-60
2023/03/30 13:05:00;;;;;;;7.30;2.80;;;;;;;;;;5015367;28;20069;-59
2023/03/30 13:07:27;;;;;;;7.72;2.83;;;;;;;;;;5016604;28;20069;-59
2023/03/30 13:10:00;;;;;;;9.05;3.00;;;;;;;;;;5014264;28;20049;-60
2023/03/30 13:12:25;;;;;;;6.68;2.70;;;;;;;;;;5016448;28;20030;-59
2023/03/30 13:15:20;;;;;;;9.13;2.78;;;;;;;;;;5034077;28;20375;-58
2023/03/30 13:17:47;;;;;;;8.98;2.85;;;;;;;;;;5008054;28;20037;-59
2023/03/30 13:20:12;;;;;;;11.45;3.05;;;;;;;;;;5015308;28;20104;-60
2023/03/30 13:22:37;;;;;;;7.45;3.17;;;;;;;;;;5028534;28;20037;-60
2023/03/30 13:25:21;;;;;;;8.55;3.10;;;;;;;;;;5011703;28;20041;-59
2023/03/30 13:27:49;;;;;;;8.18;3.30;;;;;;;;;;5015455;28;20145;-60
2023/03/30 13:30:15;;;;;;;8.93;3.00;;;;;;;;;;5012908;28;20033;-60
2023/03/30 13:32:58;;;;;;;9.38;3.35;;;;;;;;;;5013752;28;20740;-59
2023/03/30 13:35:33;;;;;;;11.43;3.55;;;;;;;;;;5012740;28;20036;-58
2023/03/30 13:38:06;;;;;;;7.95;3.00;;;;;;;;;;5010828;28;20546;-60
2023/03/30 13:40:44;;;;;;;9.18;2.83;;;;;;;;;;5009394;28;20030;-59
2023/03/30 13:43:18;;;;;;;8.02;2.85;;;;;;;;;;5019189;28;20048;-59
2023/03/30 13:45:51;;;;;;;6.22;2.72;;;;;;;;;;5010862;28;20025;-59
2023/03/30 13:48:29;;;;;;;7.80;2.45;;;;;;;;;;5012730;28;20056;-59
2023/03/30 13:50:56;;;;;;;4.80;2.25;;;;;;;;;;5011806;28;20037;-57
2023/03/30 13:53:22;;;;;;;5.15;2.38;;;;;;;;;;5012657;28;20065;-58
2023/03/30 13:55:48;;;;;;;4.45;2.00;;;;;;;;;;5011791;28;20116;-60
2023/03/30 13:58:19;;;;;;;5.47;2.30;;;;;;;;;;5017544;28;20061;-58
2023/03/30 14:00:50;;;;;;;5.47;1.98;;;;;;;;;;5009720;28;20056;-57
2023/03/30 14:03:28;;;;;;;4.53;2.08;;;;;;;;;;5012537;28;20041;-57
2023/03/30 14:06:01;;;;;;;3.92;2.35;;;;;;;;;;5012522;28;20116;-59
2023/03/30 14:08:26;;;;;;;5.60;2.10;;;;;;;;;;5011940;28;20026;-60
2023/03/30 14:10:51;;;;;;;7.22;2.78;;;;;;;;;;5014025;28;20395;-57
2023/03/30 14:13:17;;;;;;;7.88;2.50;;;;;;;;;;5026636;28;20044;-58
2023/03/30 14:15:42;;;;;;;7.10;2.30;;;;;;;;;;5024016;28;20041;-57
2023/03/30 14:18:11;;;;;;;8.18;2.25;;;;;;;;;;5012823;28;20109;-60
2023/03/30 14:20:46;;;;;;;9.23;2.35;;;;;;;;;;5010425;28;20481;-60
2023/03/30 14:23:17;;;;;;;11.82;3.10;;;;;;;;;;5010846;28;20049;-57
2023/03/30 14:25:43;;;;;;;6.32;2.38;;;;;;;;;;5010554;28;20057;-60
2023/03/30 14:28:13;;;;;;;12.20;2.70;;;;;;;;;;5011207;28;20038;-58
2023/03/30 14:30:47;;;;;;;9.63;2.90;;;;;;;;;;5010379;28;20032;-59
2023/03/30 14:33:12;;;;;;;8.07;2.85;;;;;;;;;;5013054;28;20366;-61
2023/03/30 14:35:42;;;;;;;11.27;3.28;;;;;;;;;;5009547;28;20451;-61
2023/03/30 14:38:16;;;;;;;9.15;2.83;;;;;;;;;;5010322;28;20045;-60
2023/03/30 14:40:42;;;;;;;10.65;2.50;;;;;;;;;;5025281;28;20042;-58
2023/03/30 14:43:11;;;;;;;4.90;2.22;;;;;;;;;;5008999;28;20131;-59
2023/03/30 14:45:37;;;;;;;7.25;2.72;;;;;;;;;;5010111;28;20038;-58
2023/03/30 14:48:02;;;;;;;6.72;3.05;;;;;;;;;;5011746;28;20044;-58
2023/03/30 14:50:28;;;;;;;8.30;2.80;;;;;;;;;;5012862;28;20045;-60
2023/03/30 14:52:54;;;;;;;11.65;3.00;;;;;;;;;;5011232;28;20716;-59
2023/03/30 14:55:22;;;;;;;12.27;3.45;;;;;;;;;;5010284;28;20025;-59
2023/03/30 14:57:51;;;;;;;9.68;3.28;;;;;;;;;;5013149;28;20737;-60
2023/03/30 15:00:19;;;;;;;11.52;3.20;;;;;;;;;;5009881;28;20032;-62
2023/03/30 15:02:45;;;;;;;13.45;3.08;;;;;;;;;;5010271;28;20548;-61